METAR AND TAF INFORMATION
METAR FOR SBRF
ADDS - METARS form results

(2045 UTC 21 May 2018)
Data provider http://aviationweather.gov/adds/metars/
 
METAR text: SBRF 212000Z 12009KT 9999 SCT023 28/23 Q1012
Conditions at: SBRF (RECIFE/GUARARAPE, BR) observed 2000 UTC 21 May 2018
Temperature: 28.0°C (82°F)
Dewpoint: 23.0°C (73°F) [RH = 74%]
Pressure (altimeter): 29.88 inches Hg (1012.0 mb)
Winds: from the ESE (120 degrees) at 10 MPH (9 knots; 4.7 m/s)
Visibility: 6 or more miles (10+ km)
Ceiling: at least 12,000 feet AGL
Clouds: scattered clouds at 2300 feet AGL
Weather: no significant weather observed at this time

Forecast for: SBRF (RECIFE/GUARARAPE, BR)
Text: TAF SBRF 211600Z 2118/2218 13009KT 9999 SCT023 TN25/2207Z TX29/2215Z
Forecast period: 1800 UTC 21 May 2018 to 0300 UTC 22 May 2018
Forecast type: FROM: standard forecast or significant change
Winds: from the SE (130 degrees) at 10 MPH (9 knots; 4.7 m/s)
Visibility: 6 or more miles (10+ km)
Clouds: scattered clouds at 2300 feet AGL
Weather: no significant weather forecast for this period
Forecast for: SBRF (RECIFE/GUARARAPE, BR)
Text: TAF SBRF 211600Z 2118/2218 13009KT 9999 SCT023 TN25/2207Z TX29/2215Z
Forecast period: 1800 UTC 21 May 2018 to 0300 UTC 22 May 2018
Forecast type: FROM: standard forecast or significant change
Winds: from the SE (130 degrees) at 10 MPH (9 knots; 4.7 m/s)
Visibility: 6 or more miles (10+ km)
Clouds: scattered clouds at 2300 feet AGL
Weather: no significant weather forecast for this period
Forecast for: SBRF (RECIFE/GUARARAPE, BR)
Text: TAF SBRF 211600Z 2118/2218 13009KT 9999 SCT023 TN25/2207Z TX29/2215Z
Forecast period: 0300 to 0900 UTC 22 May 2018
Forecast type: BECOMING: Conditions expected to become as follows by 0500 UTC 22 May 2018
Winds: from the SSW (200 degrees) at 5 MPH (4 knots; 2.1 m/s)
Visibility: 6 or more miles (10+ km)
Clouds: scattered clouds at 2300 feet AGL
Weather: no significant weather forecast for this period
Forecast for: SBRF (RECIFE/GUARARAPE, BR)
Text: TAF SBRF 211600Z 2118/2218 13009KT 9999 SCT023 TN25/2207Z TX29/2215Z
Forecast period: 0300 to 0900 UTC 22 May 2018
Forecast type: BECOMING: Conditions expected to become as follows by 0500 UTC 22 May 2018
Winds: from the SSW (200 degrees) at 5 MPH (4 knots; 2.1 m/s)
Visibility: 6 or more miles (10+ km)
Clouds: scattered clouds at 2300 feet AGL
Weather: no significant weather forecast for this period
Forecast for: SBRF (RECIFE/GUARARAPE, BR)
Text: TAF SBRF 211600Z 2118/2218 13009KT 9999 SCT023 TN25/2207Z TX29/2215Z
Forecast period: 0900 to 1800 UTC 22 May 2018
Forecast type: BECOMING: Conditions expected to become as follows by 1100 UTC 22 May 2018
Winds: from the SE (140 degrees) at 9 MPH (8 knots; 4.2 m/s)
Visibility: 6 or more miles (10+ km)
Clouds: scattered clouds at 2300 feet AGL
Weather: PE  (ice pellets)
Forecast for: SBRF (RECIFE/GUARARAPE, BR)
Text: TAF SBRF 211600Z 2118/2218 13009KT 9999 SCT023 TN25/2207Z TX29/2215Z
Forecast period: 0900 to 1800 UTC 22 May 2018
Forecast type: BECOMING: Conditions expected to become as follows by 1100 UTC 22 May 2018
Winds: from the SE (140 degrees) at 9 MPH (8 knots; 4.2 m/s)
Visibility: 6 or more miles (10+ km)
Clouds: scattered clouds at 2300 feet AGL
Weather: PE  (ice pellets)

 AIRPORT MAP

 RUNWAY INFORMATION
Runway 18 Runway length 9865 ft Runway width 148 ft
Runway elevation 23 ft Runway displaced threshold 0 ft Runway heading 162
Runway 36 Runway length 9865 ft Runway width 148 ft
Runway elevation 32 ft Runway displaced threshold 0 ft Runway heading 342

 AIRPORT FREQUENCIES
Type APP Name RECIFE APP Frequency 119.1 MHZ
Type ATIS Name ATIS Frequency 127.65 MHZ
Type GND Name GND Frequency 121.85 MHZ
Type OPS Name RECIFE OPS Frequency 122.5 MHZ
Type TWR Name RECIFE TWR Frequency 122.8 MHZ

 AIRPORT NEAR NAVIGATION AIDS
Type VOR-DME Name Recife Frequency 116900 KHZ



Powered by Virtual Airlines Manager [v2.6.2]